Caraiba do Norte, Brazil
Current Conditions -  °F | °C
As of 5:00 PM on Saturday 25 Oct 2014 (Local Time) from SBTE Reporting Station
Scattered Clouds Scattered Clouds  
Wind Chill: 99°   Ceiling: Unl
Heat Index: 99°   Visibility: 6mi
Dew Point: 59°   Wind: 5mph
Humidity: 27%   Direction: 100°E
Pressure: 29.71"   Gusts: NA
Location:  6.42°S, 42.88°W
Report Text: SBTE 252000Z 10004KT 9999 FEW033 SCT100 37/15 Q1006
Loading
Personal Weather Stations






























Interactive Weather Map
Tropical Storm Tracking
New forecast layout! Learn more

10-Day Weather Forecast

Advertisements
Track Severe Weather on mobile